createdAt,value
2022-09-25T00:01:04.893Z,18.27
2022-09-25T00:03:41.619Z,15.38
2022-09-25T00:06:13.696Z,15.65
2022-09-25T00:08:41.761Z,16.00
2022-09-25T00:11:12.649Z,14.85
2022-09-25T00:13:41.045Z,15.43
2022-09-25T00:16:11.342Z,13.65
2022-09-25T00:18:57.525Z,15.90
2022-09-25T00:21:29.489Z,14.00
2022-09-25T00:24:02.079Z,13.27
2022-09-25T00:26:32.397Z,14.85
2022-09-25T00:29:01.353Z,12.77
2022-09-25T00:31:30.647Z,13.65
2022-09-25T00:34:04.294Z,13.77
2022-09-25T00:36:32.375Z,14.70
2022-09-25T00:39:00.120Z,13.98
2022-09-25T00:41:31.512Z,13.93
2022-09-25T00:44:01.647Z,16.05
2022-09-25T00:46:32.872Z,14.23
2022-09-25T00:49:20.276Z,14.45
2022-09-25T00:51:57.397Z,13.73
2022-09-25T00:54:34.587Z,12.50
2022-09-25T00:57:08.911Z,14.25
2022-09-25T00:59:41.098Z,15.75
2022-09-25T01:02:14.259Z,13.00
2022-09-25T01:04:46.175Z,13.35
2022-09-25T01:07:15.780Z,13.25
2022-09-25T01:09:44.402Z,14.40
2022-09-25T01:12:11.818Z,13.13
2022-09-25T01:14:40.286Z,14.88
2022-09-25T01:17:22.137Z,13.93
2022-09-25T01:20:08.111Z,13.00
2022-09-25T01:23:08.268Z,14.02
2022-09-25T01:25:39.213Z,14.52
2022-09-25T01:28:44.134Z,13.75
2022-09-25T01:31:18.300Z,13.32
2022-09-25T01:33:50.430Z,13.93
2022-09-25T01:36:20.798Z,14.10
2022-09-25T01:38:56.562Z,14.73
2022-09-25T01:41:42.791Z,13.13
2022-09-25T01:44:16.346Z,13.35
2022-09-25T01:46:50.990Z,13.55
2022-09-25T01:49:32.470Z,12.50
2022-09-25T01:52:03.138Z,13.60
2022-09-25T01:54:35.920Z,13.15
2022-09-25T01:57:10.336Z,14.13
2022-09-25T01:59:40.775Z,14.35
2022-09-25T02:02:13.781Z,14.50
2022-09-25T02:05:00.310Z,12.90
2022-09-25T02:07:37.692Z,12.50
2022-09-25T02:10:39.948Z,12.48
2022-09-25T02:13:13.251Z,14.27
2022-09-25T02:15:45.453Z,12.35
2022-09-25T02:18:34.936Z,12.75
2022-09-25T02:21:14.363Z,14.25
2022-09-25T02:24:02.306Z,13.40
2022-09-25T02:26:32.072Z,12.77
2022-09-25T02:29:00.498Z,12.88
2022-09-25T02:32:08.710Z,15.18
2022-09-25T02:34:36.788Z,14.57
2022-09-25T02:37:13.323Z,13.23
2022-09-25T02:39:43.682Z,12.48
2022-09-25T02:42:28.141Z,13.60
2022-09-25T02:45:21.226Z,12.60
2022-09-25T02:48:12.227Z,13.57
2022-09-25T02:50:56.936Z,13.57
2022-09-25T02:53:47.991Z,13.97
2022-09-25T02:56:27.895Z,13.18
2022-09-25T02:58:59.245Z,11.48
2022-09-25T03:01:31.435Z,13.50
2022-09-25T03:04:00.942Z,12.30
2022-09-25T03:06:30.296Z,14.18
2022-09-25T03:09:00.510Z,12.85
2022-09-25T03:11:28.096Z,14.68
2022-09-25T03:13:58.422Z,12.32
2022-09-25T03:16:25.800Z,13.00
2022-09-25T03:18:53.913Z,13.38
2022-09-25T03:21:21.389Z,12.80
2022-09-25T03:23:48.713Z,11.40
2022-09-25T03:26:16.075Z,12.68
2022-09-25T03:28:43.648Z,11.95
2022-09-25T03:31:11.918Z,12.85
2022-09-25T03:33:41.946Z,11.35
2022-09-25T03:36:18.899Z,11.32
2022-09-25T03:38:49.307Z,13.43
2022-09-25T03:41:21.136Z,13.60
2022-09-25T03:43:51.653Z,12.20
2022-09-25T03:46:31.149Z,12.10
2022-09-25T03:48:59.308Z,11.35
2022-09-25T03:51:28.741Z,11.65
2022-09-25T03:53:56.242Z,12.63
2022-09-25T03:56:26.549Z,12.32
2022-09-25T03:58:55.562Z,11.77
2022-09-25T04:01:24.639Z,12.57
2022-09-25T04:03:52.633Z,11.00
2022-09-25T04:06:24.094Z,11.82
2022-09-25T04:08:53.067Z,10.38
2022-09-25T04:11:24.044Z,11.65
2022-09-25T04:13:52.539Z,12.50
2022-09-25T04:16:21.105Z,12.88
2022-09-25T04:18:48.674Z,13.55
2022-09-25T04:21:16.849Z,10.02
2022-09-25T04:24:04.447Z,12.57
2022-09-25T04:26:32.304Z,14.00
2022-09-25T04:29:01.364Z,12.25
2022-09-25T04:31:30.555Z,11.95
2022-09-25T04:33:58.521Z,12.68
2022-09-25T04:36:26.083Z,12.27
2022-09-25T04:38:53.475Z,10.98
2022-09-25T04:41:21.970Z,11.25
2022-09-25T04:43:49.297Z,12.02
2022-09-25T04:46:21.937Z,10.57
2022-09-25T04:48:50.416Z,12.10
2022-09-25T04:51:17.728Z,11.05
2022-09-25T04:53:45.130Z,12.63
2022-09-25T04:56:15.779Z,13.00
2022-09-25T04:58:46.206Z,13.20
2022-09-25T05:01:13.986Z,12.73
2022-09-25T05:03:42.766Z,11.43
2022-09-25T05:06:10.157Z,12.38
2022-09-25T05:08:37.790Z,12.10
2022-09-25T05:11:05.124Z,14.73
2022-09-25T05:13:32.446Z,12.45
2022-09-25T05:16:00.296Z,11.30
2022-09-25T05:18:27.619Z,10.77
2022-09-25T05:20:55.164Z,12.60
2022-09-25T05:23:23.846Z,11.68
2022-09-25T05:26:02.018Z,11.05
2022-09-25T05:28:34.042Z,11.82
2022-09-25T05:31:05.486Z,11.38
2022-09-25T05:33:34.481Z,11.02
2022-09-25T05:36:06.569Z,12.13
2022-09-25T05:38:36.486Z,12.65
2022-09-25T05:41:06.044Z,11.90
2022-09-25T05:43:34.823Z,12.85
2022-09-25T05:46:02.560Z,12.15
2022-09-25T05:48:30.511Z,12.98
2022-09-25T05:50:58.103Z,11.00
2022-09-25T05:53:26.908Z,11.23
2022-09-25T05:55:58.216Z,13.18
2022-09-25T05:58:30.579Z,13.05
2022-09-25T06:01:03.323Z,12.02
2022-09-25T06:03:31.060Z,11.52
2022-09-25T06:06:00.074Z,11.50
2022-09-25T06:08:30.983Z,11.68
2022-09-25T06:11:00.709Z,10.15
2022-09-25T06:13:32.011Z,11.85
2022-09-25T06:15:59.647Z,11.20
2022-09-25T06:18:27.413Z,11.15
2022-09-25T06:21:04.022Z,10.82
2022-09-25T06:23:31.907Z,11.65
2022-09-25T06:26:04.041Z,9.85
2022-09-25T06:28:33.142Z,12.23
2022-09-25T06:31:02.498Z,12.68
2022-09-25T06:33:30.397Z,11.35
2022-09-25T06:35:57.693Z,11.27
2022-09-25T06:38:25.922Z,14.45
2022-09-25T06:40:54.035Z,10.77
2022-09-25T06:43:22.300Z,15.73
2022-09-25T06:45:51.296Z,11.90
2022-09-25T06:48:18.700Z,14.82
2022-09-25T06:50:45.995Z,17.60
2022-09-25T06:53:15.425Z,17.17
2022-09-25T06:55:45.240Z,17.10
2022-09-25T06:58:15.183Z,12.68
2022-09-25T07:00:46.630Z,13.90
2022-09-25T07:03:33.149Z,12.23
2022-09-25T07:06:01.950Z,12.38
2022-09-25T07:08:29.954Z,12.48
2022-09-25T07:10:58.832Z,12.75
2022-09-25T07:13:29.845Z,13.60
2022-09-25T07:16:02.703Z,14.05
2022-09-25T07:18:31.131Z,11.43
2022-09-25T07:21:07.361Z,12.80
2022-09-25T07:23:35.361Z,10.77
2022-09-25T07:26:14.291Z,11.90
2022-09-25T07:28:43.614Z,12.77
2022-09-25T07:31:20.415Z,13.18
2022-09-25T07:33:49.103Z,14.23
2022-09-25T07:36:18.051Z,14.10
2022-09-25T07:38:50.395Z,12.23
2022-09-25T07:41:19.107Z,11.98
2022-09-25T07:43:46.662Z,10.63
2022-09-25T07:46:14.021Z,11.38
2022-09-25T07:48:41.597Z,11.48
2022-09-25T07:51:11.771Z,11.55
2022-09-25T07:53:40.494Z,11.15
2022-09-25T07:56:09.590Z,11.75
2022-09-25T07:58:37.111Z,10.27
2022-09-25T08:01:06.675Z,11.20
2022-09-25T08:03:34.787Z,12.18
2022-09-25T08:06:07.376Z,13.50
2022-09-25T08:08:35.464Z,9.88
2022-09-25T08:11:09.164Z,11.05
2022-09-25T08:13:38.394Z,11.55
2022-09-25T08:16:12.150Z,9.18
2022-09-25T08:18:45.400Z,12.05
2022-09-25T08:21:15.040Z,12.15
2022-09-25T08:23:47.647Z,12.05
2022-09-25T08:26:16.561Z,11.23
2022-09-25T08:28:44.273Z,10.57
2022-09-25T08:31:13.273Z,12.10
2022-09-25T08:33:50.351Z,11.75
2022-09-25T08:36:18.475Z,10.55
2022-09-25T08:38:46.689Z,11.77
2022-09-25T08:41:33.302Z,11.45
2022-09-25T08:44:30.723Z,10.15
2022-09-25T08:47:22.740Z,9.80
2022-09-25T08:50:13.614Z,10.90
2022-09-25T08:52:43.444Z,10.85
2022-09-25T08:55:23.761Z,12.25
2022-09-25T08:57:55.612Z,12.15
2022-09-25T09:00:24.627Z,10.25
2022-09-25T09:02:54.595Z,10.43
2022-09-25T09:05:31.643Z,12.02
2022-09-25T09:08:04.578Z,12.70
2022-09-25T09:11:05.749Z,11.57
2022-09-25T09:13:38.531Z,10.32
2022-09-25T09:16:43.609Z,13.30
2022-09-25T09:19:13.065Z,12.57
2022-09-25T09:22:09.240Z,13.02
2022-09-25T09:24:45.867Z,14.68
2022-09-25T09:27:27.110Z,11.52
2022-09-25T09:30:06.080Z,10.75
2022-09-25T09:32:55.230Z,13.05
2022-09-25T09:35:36.471Z,11.45
2022-09-25T09:38:24.720Z,11.18
2022-09-25T09:41:12.166Z,10.38
2022-09-25T09:44:04.083Z,13.68
2022-09-25T09:46:40.285Z,11.52
2022-09-25T09:49:18.305Z,10.63
2022-09-25T09:52:02.891Z,9.90
2022-09-25T09:54:48.462Z,12.82
2022-09-25T09:57:27.956Z,9.10
2022-09-25T10:00:04.640Z,10.90
2022-09-25T10:02:44.620Z,11.02
2022-09-25T10:05:17.126Z,9.80
2022-09-25T10:07:46.684Z,9.77
2022-09-25T10:10:16.825Z,10.10
2022-09-25T10:12:48.567Z,12.25
2022-09-25T10:15:30.537Z,10.05
2022-09-25T10:18:00.770Z,10.32
2022-09-25T10:20:52.414Z,11.77
2022-09-25T10:23:50.593Z,11.15
2022-09-25T10:26:33.119Z,11.27
2022-09-25T10:29:03.330Z,9.82
2022-09-25T10:31:34.232Z,10.68
2022-09-25T10:34:13.958Z,10.20
2022-09-25T10:36:45.566Z,10.02
2022-09-25T10:39:50.413Z,9.32
2022-09-25T10:42:41.514Z,9.85
2022-09-25T10:45:28.557Z,11.27
2022-09-25T10:48:14.871Z,10.50
2022-09-25T10:50:42.445Z,9.43
2022-09-25T10:53:30.126Z,10.32
2022-09-25T10:56:05.355Z,8.82
2022-09-25T10:58:39.422Z,9.38
2022-09-25T11:01:12.440Z,9.38
2022-09-25T11:04:00.468Z,10.38
2022-09-25T11:06:30.473Z,8.73
2022-09-25T11:09:07.708Z,12.10
2022-09-25T11:11:37.554Z,10.55
2022-09-25T11:14:07.720Z,9.55
2022-09-25T11:16:49.044Z,10.98
2022-09-25T11:19:37.338Z,10.38
2022-09-25T11:22:33.206Z,9.23
2022-09-25T11:25:13.047Z,9.60
2022-09-25T11:28:11.355Z,11.60
2022-09-25T11:30:52.898Z,10.50
2022-09-25T11:33:42.145Z,14.13
2022-09-25T11:36:22.618Z,11.90
2022-09-25T11:39:13.616Z,11.80
2022-09-25T11:41:46.922Z,10.68
2022-09-25T11:44:32.119Z,10.82
2022-09-25T11:49:53.329Z,10.38
2022-09-25T11:52:42.486Z,10.93
2022-09-25T11:55:47.169Z,11.75
2022-09-25T11:58:26.554Z,11.23
2022-09-25T12:01:29.377Z,12.32
2022-09-25T12:04:15.489Z,10.77
2022-09-25T12:06:44.829Z,8.93
2022-09-25T12:09:30.396Z,19.48
2022-09-25T12:12:13.496Z,13.38
2022-09-25T12:15:25.778Z,15.55
2022-09-25T12:18:19.285Z,13.82
2022-09-25T12:21:01.144Z,13.98
2022-09-25T12:23:34.054Z,17.98
2022-09-25T12:26:25.012Z,13.43
2022-09-25T12:28:52.598Z,11.27
2022-09-25T12:31:39.429Z,11.43
2022-09-25T12:34:21.141Z,17.50
2022-09-25T12:37:13.667Z,12.18
2022-09-25T12:39:50.471Z,16.42
2022-09-25T12:42:25.626Z,17.40
2022-09-25T12:47:41.246Z,15.02
2022-09-25T12:50:14.667Z,11.82
2022-09-25T12:52:50.739Z,16.08
2022-09-25T12:55:26.238Z,13.25
2022-09-25T12:58:21.319Z,12.13
2022-09-25T13:00:59.676Z,14.88
2022-09-25T13:03:40.811Z,13.68
2022-09-25T13:06:43.762Z,10.55
2022-09-25T13:09:33.283Z,11.98
2022-09-25T13:12:28.492Z,12.10
2022-09-25T13:15:13.019Z,10.15
2022-09-25T13:17:41.246Z,12.73
2022-09-25T13:20:27.461Z,14.63
2022-09-25T13:23:03.525Z,14.13
2022-09-25T13:25:41.035Z,9.93
2022-09-25T13:28:14.697Z,10.80
2022-09-25T13:30:59.280Z,14.38
2022-09-25T13:33:27.960Z,14.30
2022-09-25T13:36:23.353Z,11.07
2022-09-25T13:39:15.609Z,14.55
2022-09-25T13:41:53.419Z,10.88
2022-09-25T13:44:49.354Z,13.35
2022-09-25T13:47:27.100Z,9.10
2022-09-25T13:50:04.464Z,12.25
2022-09-25T13:53:12.624Z,15.52
2022-09-25T13:55:41.777Z,11.63
2022-09-25T13:58:28.797Z,10.90
2022-09-25T14:01:01.713Z,8.30
2022-09-25T14:03:48.135Z,8.98
2022-09-25T14:06:25.085Z,13.10
2022-09-25T14:08:56.426Z,9.13
2022-09-25T14:11:30.073Z,10.05
2022-09-25T14:14:00.070Z,8.88
2022-09-25T14:16:45.589Z,9.57
2022-09-25T14:19:19.006Z,11.40
2022-09-25T14:21:48.121Z,10.05
2022-09-25T14:24:28.887Z,10.13
2022-09-25T14:26:58.866Z,8.75
2022-09-25T14:29:30.945Z,8.75
2022-09-25T14:32:42.806Z,7.20
2022-09-25T14:37:54.298Z,8.00
2022-09-25T14:40:40.290Z,9.88
2022-09-25T14:43:14.257Z,9.88
2022-09-25T14:46:03.160Z,9.63
2022-09-25T14:48:44.849Z,10.02
2022-09-25T14:51:16.142Z,8.48
2022-09-25T14:53:48.748Z,11.88
2022-09-25T14:56:16.683Z,8.65
2022-09-25T14:58:49.991Z,8.95
2022-09-25T15:01:29.959Z,9.05
2022-09-25T15:04:06.665Z,7.50
2022-09-25T15:06:36.646Z,9.02
2022-09-25T15:09:35.043Z,9.25
2022-09-25T15:12:17.775Z,7.95
2022-09-25T15:15:08.091Z,9.68
2022-09-25T15:17:49.393Z,7.82
2022-09-25T15:20:23.345Z,8.82
2022-09-25T15:22:57.807Z,7.43
2022-09-25T15:25:42.509Z,11.13
2022-09-25T15:28:15.814Z,6.72
2022-09-25T15:30:44.668Z,8.00
2022-09-25T15:33:26.515Z,8.45
2022-09-25T15:35:59.228Z,9.05
2022-09-25T15:38:32.426Z,8.05
2022-09-25T15:41:01.130Z,8.50
2022-09-25T15:43:30.140Z,8.13
2022-09-25T15:46:18.915Z,11.15
2022-09-25T15:48:58.594Z,8.50
2022-09-25T15:51:30.427Z,7.10
2022-09-25T15:53:59.335Z,8.32
2022-09-25T15:56:55.236Z,9.30
2022-09-25T15:59:30.501Z,7.32
2022-09-25T16:02:17.376Z,8.75
2022-09-25T16:04:50.717Z,10.65
2022-09-25T16:07:22.936Z,7.85
2022-09-25T16:09:59.455Z,6.88
2022-09-25T16:12:42.343Z,7.82
2022-09-25T16:15:26.317Z,8.25
2022-09-25T16:17:55.586Z,8.05
2022-09-25T16:20:37.757Z,7.88
2022-09-25T16:23:16.619Z,7.60
2022-09-25T16:25:45.307Z,9.00
2022-09-25T16:28:20.233Z,8.15
2022-09-25T16:31:07.925Z,7.15
2022-09-25T16:33:39.914Z,7.53
2022-09-25T16:36:17.611Z,7.03
2022-09-25T16:39:07.697Z,8.07
2022-09-25T16:41:43.777Z,7.22
2022-09-25T16:44:17.766Z,8.30
2022-09-25T16:47:05.734Z,7.93
2022-09-25T16:49:34.193Z,8.23
2022-09-25T16:52:07.586Z,7.43
2022-09-25T16:54:37.740Z,8.65
2022-09-25T16:57:06.074Z,7.53
2022-09-25T16:59:33.598Z,7.95
2022-09-25T17:02:08.187Z,8.25
2022-09-25T17:04:38.669Z,6.93
2022-09-25T17:07:06.197Z,7.72
2022-09-25T17:09:33.557Z,8.13
2022-09-25T17:12:07.506Z,7.43
2022-09-25T17:14:35.829Z,6.93
2022-09-25T17:17:03.518Z,7.20
2022-09-25T17:19:30.937Z,7.43
2022-09-25T17:21:58.271Z,7.07
2022-09-25T17:24:27.778Z,8.18
2022-09-25T17:26:55.248Z,7.57
2022-09-25T17:29:23.961Z,6.20
2022-09-25T17:31:51.274Z,6.45
2022-09-25T17:34:24.590Z,7.88
2022-09-25T17:36:52.404Z,7.40
2022-09-25T17:39:19.820Z,7.85
2022-09-25T17:41:47.712Z,7.35
2022-09-25T17:44:23.676Z,6.65
2022-09-25T17:46:53.752Z,7.93
2022-09-25T17:49:23.350Z,7.95
2022-09-25T17:51:51.563Z,7.22
2022-09-25T17:54:19.321Z,9.57
2022-09-25T17:56:48.865Z,11.30
2022-09-25T17:59:16.317Z,8.15
2022-09-25T18:01:43.743Z,7.15
2022-09-25T18:04:24.604Z,8.15
2022-09-25T18:06:52.244Z,11.75
2022-09-25T18:09:19.861Z,11.05
2022-09-25T18:11:47.733Z,8.05
2022-09-25T18:14:15.826Z,7.68
2022-09-25T18:16:46.400Z,8.23
2022-09-25T18:19:37.217Z,7.45
2022-09-25T18:22:18.759Z,6.80
2022-09-25T18:24:48.134Z,9.70
2022-09-25T18:27:16.215Z,7.38
2022-09-25T18:29:45.732Z,8.15
2022-09-25T18:32:13.757Z,9.32
2022-09-25T18:34:42.757Z,8.10
2022-09-25T18:37:11.033Z,9.18
2022-09-25T18:39:38.476Z,12.80
2022-09-25T18:42:06.834Z,7.55
2022-09-25T18:44:41.973Z,8.55
2022-09-25T18:47:11.202Z,10.23
2022-09-25T18:49:38.658Z,7.85
2022-09-25T18:52:08.889Z,8.70
2022-09-25T18:54:36.522Z,9.52
2022-09-25T18:57:03.923Z,9.95
2022-09-25T18:59:31.338Z,8.65
2022-09-25T19:01:59.160Z,9.68
2022-09-25T19:04:26.713Z,9.50
2022-09-25T19:06:54.220Z,8.98
2022-09-25T19:09:27.473Z,9.85
2022-09-25T19:11:55.391Z,10.70
2022-09-25T19:14:25.217Z,8.30
2022-09-25T19:16:53.557Z,10.35
2022-09-25T19:19:21.137Z,8.55
2022-09-25T19:21:48.914Z,10.43
2022-09-25T19:24:18.187Z,8.57
2022-09-25T19:26:46.149Z,8.23
2022-09-25T19:29:14.997Z,8.45
2022-09-25T19:31:42.906Z,11.85
2022-09-25T19:34:11.360Z,20.15
2022-09-25T19:36:39.060Z,17.70
2022-09-25T19:39:06.410Z,16.02
2022-09-25T19:41:36.077Z,11.43
2022-09-25T19:44:12.889Z,11.20
2022-09-25T19:46:45.964Z,12.63
2022-09-25T19:49:16.127Z,14.18
2022-09-25T19:51:44.085Z,11.65
2022-09-25T19:54:13.149Z,12.13
2022-09-25T19:56:42.328Z,9.30
2022-09-25T19:59:14.729Z,10.23
2022-09-25T20:01:42.998Z,10.10
2022-09-25T20:04:15.708Z,8.18
2022-09-25T20:06:48.625Z,9.93
2022-09-25T20:09:16.662Z,9.98
2022-09-25T20:11:44.732Z,11.38
2022-09-25T20:14:13.366Z,11.00
2022-09-25T20:16:41.026Z,9.60
2022-09-25T20:19:08.505Z,8.60
2022-09-25T20:21:38.179Z,11.43
2022-09-25T20:24:07.908Z,9.98
2022-09-25T20:26:36.390Z,10.02
2022-09-25T20:29:10.375Z,10.40
2022-09-25T20:31:39.938Z,9.90
2022-09-25T20:34:10.677Z,10.43
2022-09-25T20:36:39.884Z,9.98
2022-09-25T20:39:08.133Z,7.03
2022-09-25T20:41:35.936Z,8.93
2022-09-25T20:44:05.660Z,9.65
2022-09-25T20:46:34.202Z,8.55
2022-09-25T20:49:02.162Z,8.93
2022-09-25T20:51:34.841Z,10.63
2022-09-25T20:54:05.616Z,11.13
2022-09-25T20:56:35.006Z,9.75
2022-09-25T20:59:04.841Z,7.95
2022-09-25T21:01:36.600Z,7.05
2022-09-25T21:04:07.907Z,8.15
2022-09-25T21:06:41.243Z,9.98
2022-09-25T21:09:18.859Z,9.85
2022-09-25T21:11:46.984Z,9.98
2022-09-25T21:14:19.554Z,10.40
2022-09-25T21:16:48.483Z,10.15
2022-09-25T21:19:17.721Z,10.35
2022-09-25T21:21:45.921Z,8.02
2022-09-25T21:24:15.353Z,9.38
2022-09-25T21:26:42.800Z,9.25
2022-09-25T21:29:12.063Z,12.60
2022-09-25T21:31:45.311Z,9.55
2022-09-25T21:34:17.282Z,7.93
2022-09-25T21:36:45.659Z,10.93
2022-09-25T21:39:13.308Z,10.23
2022-09-25T21:41:41.787Z,8.63
2022-09-25T21:44:14.338Z,9.40
2022-09-25T21:46:42.111Z,8.50
2022-09-25T21:49:16.121Z,9.43
2022-09-25T21:51:45.194Z,10.13
2022-09-25T21:54:13.460Z,9.27
2022-09-25T21:56:41.619Z,8.88
2022-09-25T21:59:09.717Z,7.55
2022-09-25T22:01:39.518Z,8.57
2022-09-25T22:04:11.033Z,11.05
2022-09-25T22:06:41.664Z,8.55
2022-09-25T22:09:15.975Z,9.75
2022-09-25T22:11:44.973Z,9.13
2022-09-25T22:14:16.376Z,7.50
2022-09-25T22:16:46.737Z,11.77
2022-09-25T22:19:22.951Z,9.07
2022-09-25T22:21:51.953Z,9.55
2022-09-25T22:24:20.010Z,9.73
2022-09-25T22:26:48.915Z,8.07
2022-09-25T22:29:16.629Z,6.88
2022-09-25T22:31:44.630Z,11.55
2022-09-25T22:34:18.770Z,11.23
2022-09-25T22:36:46.974Z,9.38
2022-09-25T22:39:17.522Z,11.88
2022-09-25T22:41:45.778Z,8.68
2022-09-25T22:44:13.430Z,8.73
2022-09-25T22:46:40.911Z,10.50
2022-09-25T22:49:08.791Z,9.48
2022-09-25T22:51:36.670Z,9.30
2022-09-25T22:54:04.289Z,9.52
2022-09-25T22:56:33.483Z,8.55
2022-09-25T22:59:03.965Z,10.02
2022-09-25T23:01:40.480Z,9.68
2022-09-25T23:04:11.925Z,8.50
2022-09-25T23:06:39.978Z,9.48
2022-09-25T23:09:12.929Z,8.77
2022-09-25T23:11:41.848Z,9.43
2022-09-25T23:14:17.458Z,9.25
2022-09-25T23:16:46.429Z,11.02
2022-09-25T23:19:14.343Z,8.55
2022-09-25T23:21:42.496Z,8.68
2022-09-25T23:24:13.213Z,8.57
2022-09-25T23:26:40.609Z,8.35
2022-09-25T23:29:08.431Z,9.23
2022-09-25T23:31:36.079Z,8.10
2022-09-25T23:34:03.707Z,9.93
2022-09-25T23:36:31.318Z,8.35
2022-09-25T23:39:00.626Z,10.90
2022-09-25T23:41:32.201Z,9.73
2022-09-25T23:44:01.990Z,9.38
2022-09-25T23:46:32.338Z,9.52
2022-09-25T23:49:00.125Z,8.13
2022-09-25T23:51:27.606Z,10.02
2022-09-25T23:53:57.114Z,8.50
2022-09-25T23:56:27.324Z,9.80
2022-09-25T23:58:56.758Z,8.07
